Current | Forecast
Updated: 7:30 PM CEST on October 19, 2017
Observed at Budapest Ferihegy, Hungary
Temperature 13°C
Humidity 94%
Dew Point 12°C
Wind NW at 11 km/h
Pressure 1016 hPa (Steady)
Conditions Clear
Visibility 6.0 kilometers
UV N/A
Clouds
Yesterday's Maximum 22°C
Yesterday's Minimum 8°C approx.
Yesterday's Heating Degree Days 6 approx.
Sunrise7:08 AM CEST
Sunset5:48 PM CEST
Moon Rise6:23 AM CEST
Moon Set6:05 PM CEST
Moon PhaseMoon Phase
Waning Crescent
Raw METARMETAR LHBP 191730Z 31006KT 6000 NSC 13/12 Q1016 NOSIG


Monday
. High: 62° F.
Tuesday
. High: 77° F.
Wednesday
. High: 80° F.
Thursday
. High: 77° F.
Friday
. High: 66° F.
Saturday
. High: 69° F.
Sunday
. High: 71° F.
Monday
. High: 69° F.

Units: English | Metric

Find the Weather for any City, State or Zipcode, or Country:

U.S. State List | Severe Weather | Tropical Storms | Ski Conditions
United States | Canada | Central America | South America | Asia | Europe | Australia | Africa | Islands

Weather Underground

© Copyright 2017
The Weather Company, LLC